createdAt,value
2022-11-20T00:01:17.288Z,15.54
2022-11-20T00:03:44.907Z,15.82
2022-11-20T00:06:12.864Z,15.68
2022-11-20T00:08:40.045Z,15.88
2022-11-20T00:11:15.497Z,16.32
2022-11-20T00:13:43.325Z,16.60
2022-11-20T00:16:11.278Z,16.84
2022-11-20T00:18:38.452Z,16.24
2022-11-20T00:21:06.413Z,16.77
2022-11-20T00:23:33.465Z,16.94
2022-11-20T00:26:04.586Z,16.10
2022-11-20T00:28:31.336Z,16.16
2022-11-20T00:31:01.652Z,16.11
2022-11-20T00:33:28.691Z,16.19
2022-11-20T00:35:59.947Z,15.93
2022-11-20T00:38:26.474Z,16.67
2022-11-20T00:40:57.158Z,17.25
2022-11-20T00:43:23.777Z,16.82
2022-11-20T00:45:50.328Z,16.72
2022-11-20T00:48:16.931Z,16.62
2022-11-20T00:50:43.456Z,17.05
2022-11-20T00:53:09.993Z,17.00
2022-11-20T00:55:36.515Z,16.88
2022-11-20T00:58:04.652Z,17.41
2022-11-20T01:00:31.440Z,17.30
2022-11-20T01:02:57.974Z,17.25
2022-11-20T01:05:24.718Z,16.32
2022-11-20T01:07:51.504Z,16.27
2022-11-20T01:10:18.317Z,16.32
2022-11-20T01:13:04.890Z,16.08
2022-11-20T01:15:31.424Z,16.36
2022-11-20T01:17:58.022Z,16.57
2022-11-20T01:20:24.596Z,16.36
2022-11-20T01:22:51.142Z,16.46
2022-11-20T01:25:17.681Z,16.39
2022-11-20T01:27:44.264Z,16.50
2022-11-20T01:30:11.059Z,16.76
2022-11-20T01:32:37.578Z,16.60
2022-11-20T01:35:04.232Z,16.76
2022-11-20T01:37:30.899Z,16.81
2022-11-20T01:39:57.484Z,16.61
2022-11-20T01:42:42.919Z,17.15
2022-11-20T01:45:28.143Z,17.42
2022-11-20T01:47:54.975Z,16.82
2022-11-20T01:50:29.876Z,16.57
2022-11-20T01:53:00.353Z,16.85
2022-11-20T01:55:31.108Z,16.76
2022-11-20T01:57:58.900Z,16.54
2022-11-20T02:00:25.769Z,16.55
2022-11-20T02:02:58.569Z,15.99
2022-11-20T02:05:29.596Z,16.79
2022-11-20T02:07:58.809Z,16.55
2022-11-20T02:10:25.528Z,16.53
2022-11-20T02:13:11.218Z,16.19
2022-11-20T02:15:37.748Z,16.81
2022-11-20T02:18:05.102Z,17.23
2022-11-20T02:20:32.057Z,17.00
2022-11-20T02:23:14.066Z,17.18
2022-11-20T02:25:43.758Z,17.40
2022-11-20T02:28:11.234Z,16.04
2022-11-20T02:30:37.756Z,16.93
2022-11-20T02:33:04.281Z,16.86
2022-11-20T02:35:30.835Z,16.56
2022-11-20T02:38:01.247Z,16.07
2022-11-20T02:40:27.786Z,16.45
2022-11-20T02:42:54.954Z,16.50
2022-11-20T02:45:22.111Z,16.44
2022-11-20T02:47:48.764Z,16.29
2022-11-20T02:50:15.761Z,16.43
2022-11-20T02:52:43.024Z,16.17
2022-11-20T02:55:10.101Z,16.71
2022-11-20T02:57:36.901Z,16.29
2022-11-20T03:00:05.175Z,16.59
2022-11-20T03:02:32.027Z,16.61
2022-11-20T03:04:58.556Z,16.38
2022-11-20T03:07:25.331Z,16.54
2022-11-20T03:09:51.933Z,16.67
2022-11-20T03:12:18.463Z,16.44
2022-11-20T03:14:48.897Z,16.49
2022-11-20T03:17:18.316Z,17.12
2022-11-20T03:19:45.097Z,16.76
2022-11-20T03:22:11.586Z,17.67
2022-11-20T03:24:38.098Z,16.80
2022-11-20T03:27:04.637Z,17.82
2022-11-20T03:29:31.166Z,17.57
2022-11-20T03:31:57.700Z,17.45
2022-11-20T03:34:24.259Z,17.75
2022-11-20T03:36:50.788Z,17.93
2022-11-20T03:39:17.241Z,18.07
2022-11-20T03:41:44.482Z,17.56
2022-11-20T03:44:11.808Z,17.23
2022-11-20T03:46:38.597Z,17.44
2022-11-20T03:49:05.597Z,17.26
2022-11-20T03:51:33.777Z,17.34
2022-11-20T03:54:02.264Z,18.07
2022-11-20T03:56:30.800Z,18.17
2022-11-20T03:58:57.482Z,18.83
2022-11-20T04:01:25.788Z,18.25
2022-11-20T04:03:53.535Z,17.86
2022-11-20T04:06:22.326Z,18.03
2022-11-20T04:08:53.558Z,17.82
2022-11-20T04:11:24.928Z,17.80
2022-11-20T04:13:54.287Z,17.83
2022-11-20T04:16:21.673Z,18.22
2022-11-20T04:18:48.301Z,18.27
2022-11-20T04:21:14.869Z,17.93
2022-11-20T04:23:41.692Z,18.31
2022-11-20T04:26:09.951Z,17.82
2022-11-20T04:28:36.779Z,17.80
2022-11-20T04:31:08.144Z,17.92
2022-11-20T04:33:35.715Z,18.19
2022-11-20T04:36:06.995Z,18.41
2022-11-20T04:38:33.877Z,18.60
2022-11-20T04:41:04.845Z,18.97
2022-11-20T04:43:32.170Z,19.78
2022-11-20T04:45:59.410Z,19.25
2022-11-20T04:48:26.973Z,19.24
2022-11-20T04:50:54.327Z,19.19
2022-11-20T04:53:21.274Z,19.31
2022-11-20T04:55:48.214Z,18.99
2022-11-20T04:58:15.382Z,19.26
2022-11-20T05:00:42.004Z,18.77
2022-11-20T05:03:08.631Z,19.21
2022-11-20T05:05:35.950Z,18.71
2022-11-20T05:08:02.521Z,19.46
2022-11-20T05:10:29.705Z,18.71
2022-11-20T05:12:56.349Z,19.15
2022-11-20T05:15:23.158Z,19.64
2022-11-20T05:17:50.526Z,19.67
2022-11-20T05:20:17.347Z,19.51
2022-11-20T05:22:45.768Z,19.81
2022-11-20T05:25:12.832Z,20.03
2022-11-20T05:27:39.926Z,19.59
2022-11-20T05:30:07.499Z,20.41
2022-11-20T05:32:34.018Z,20.69
2022-11-20T05:35:00.585Z,20.53
2022-11-20T05:37:27.202Z,20.65
2022-11-20T05:39:54.054Z,20.10
2022-11-20T05:42:46.846Z,20.62
2022-11-20T05:45:13.449Z,20.35
2022-11-20T05:47:40.056Z,19.52
2022-11-20T05:50:06.696Z,19.53
2022-11-20T05:52:33.246Z,19.64
2022-11-20T05:54:59.770Z,19.46
2022-11-20T05:57:26.320Z,20.29
2022-11-20T05:59:52.959Z,20.00
2022-11-20T06:02:19.550Z,20.50
2022-11-20T06:04:46.114Z,20.36
2022-11-20T06:07:12.812Z,20.57
2022-11-20T06:09:39.371Z,21.01
2022-11-20T06:12:07.862Z,21.01
2022-11-20T06:14:34.947Z,20.67
2022-11-20T06:17:01.688Z,21.04
2022-11-20T06:19:28.246Z,21.53
2022-11-20T06:21:54.822Z,21.41
2022-11-20T06:24:21.361Z,22.24
2022-11-20T06:26:47.886Z,21.35
2022-11-20T06:29:14.475Z,21.49
2022-11-20T06:31:43.427Z,21.99
2022-11-20T06:34:10.052Z,21.75
2022-11-20T06:36:36.617Z,21.29
2022-11-20T06:39:04.237Z,21.44
2022-11-20T06:41:31.132Z,21.58
2022-11-20T06:43:58.141Z,22.11
2022-11-20T06:46:24.787Z,22.52
2022-11-20T06:48:51.555Z,22.77
2022-11-20T06:51:18.090Z,22.36
2022-11-20T06:53:44.707Z,21.85
2022-11-20T06:56:11.323Z,21.92
2022-11-20T06:58:38.035Z,22.67
2022-11-20T07:01:10.127Z,22.77
2022-11-20T07:03:36.991Z,22.43
2022-11-20T07:06:03.731Z,21.99
2022-11-20T07:08:30.457Z,23.10
2022-11-20T07:11:01.177Z,22.37
2022-11-20T07:13:28.489Z,22.81
2022-11-20T07:15:55.621Z,22.16
2022-11-20T07:18:22.343Z,22.21
2022-11-20T07:20:49.090Z,22.12
2022-11-20T07:23:15.731Z,22.51
2022-11-20T07:25:42.258Z,22.58
2022-11-20T07:28:09.274Z,22.23
2022-11-20T07:30:35.838Z,22.24
2022-11-20T07:33:02.365Z,23.10
2022-11-20T07:35:29.448Z,23.60
2022-11-20T07:37:56.041Z,23.89
2022-11-20T07:40:23.181Z,23.61
2022-11-20T07:42:51.162Z,23.40
2022-11-20T07:45:18.628Z,23.81
2022-11-20T07:47:45.296Z,23.47
2022-11-20T07:50:12.335Z,23.64
2022-11-20T07:52:39.083Z,23.01
2022-11-20T07:55:06.300Z,23.31
2022-11-20T07:57:33.024Z,22.55
2022-11-20T07:59:59.970Z,23.09
2022-11-20T08:02:26.916Z,22.93
2022-11-20T08:04:53.904Z,22.67
2022-11-20T08:07:20.595Z,22.54
2022-11-20T08:09:47.568Z,22.27
2022-11-20T08:12:40.105Z,23.29
2022-11-20T08:15:12.502Z,24.62
2022-11-20T08:17:39.803Z,23.99
2022-11-20T08:20:06.532Z,23.22
2022-11-20T08:22:33.328Z,23.50
2022-11-20T08:24:59.966Z,23.63
2022-11-20T08:27:26.574Z,23.89
2022-11-20T08:29:53.207Z,23.95
2022-11-20T08:32:19.721Z,24.11
2022-11-20T08:34:47.386Z,24.07
2022-11-20T08:37:14.046Z,24.08
2022-11-20T08:39:40.627Z,24.77
2022-11-20T08:42:10.087Z,25.21
2022-11-20T08:44:36.592Z,24.83
2022-11-20T08:47:03.340Z,25.29
2022-11-20T08:49:30.034Z,25.49
2022-11-20T08:51:56.571Z,25.39
2022-11-20T08:54:23.700Z,25.07
2022-11-20T08:56:50.326Z,24.80
2022-11-20T08:59:31.321Z,24.99
2022-11-20T09:02:03.433Z,26.02
2022-11-20T09:04:29.966Z,25.10
2022-11-20T09:06:56.552Z,24.62
2022-11-20T09:09:23.483Z,25.02
2022-11-20T09:11:51.044Z,26.06
2022-11-20T09:14:17.575Z,26.04
2022-11-20T09:16:45.660Z,25.89
2022-11-20T09:22:00.001Z,26.40
2022-11-20T09:24:27.240Z,27.15
2022-11-20T09:26:53.774Z,26.77
2022-11-20T09:29:20.718Z,26.39
2022-11-20T09:31:47.786Z,25.77
2022-11-20T09:34:14.451Z,26.04
2022-11-20T09:36:41.028Z,26.23
2022-11-20T09:39:07.674Z,26.45
2022-11-20T09:41:49.197Z,26.44
2022-11-20T09:44:39.964Z,26.56
2022-11-20T09:47:14.397Z,26.39
2022-11-20T09:49:52.829Z,26.00
2022-11-20T09:52:37.789Z,26.43
2022-11-20T09:55:05.218Z,26.84
2022-11-20T09:57:37.695Z,26.78
2022-11-20T10:00:06.161Z,26.17
2022-11-20T10:02:50.726Z,26.04
2022-11-20T10:05:17.605Z,26.88
2022-11-20T10:07:49.673Z,26.96
2022-11-20T10:10:19.039Z,26.70
2022-11-20T10:13:09.316Z,26.76
2022-11-20T10:15:41.802Z,26.77
2022-11-20T10:18:26.980Z,27.09
2022-11-20T10:20:56.677Z,27.25
2022-11-20T10:23:35.500Z,27.29
2022-11-20T10:26:04.453Z,26.76
2022-11-20T10:28:34.197Z,26.62
2022-11-20T10:31:03.609Z,26.97
2022-11-20T10:33:57.088Z,26.54
2022-11-20T10:36:29.157Z,26.55
2022-11-20T10:39:01.919Z,26.60
2022-11-20T10:41:37.218Z,26.91
2022-11-20T10:44:13.157Z,25.54
2022-11-20T10:46:49.724Z,26.09
2022-11-20T10:49:20.128Z,26.48
2022-11-20T10:51:49.916Z,26.90
2022-11-20T10:54:19.578Z,27.66
2022-11-20T10:56:52.104Z,26.79
2022-11-20T10:59:42.795Z,27.51
2022-11-20T11:02:16.296Z,28.12
2022-11-20T11:04:51.464Z,28.11
2022-11-20T11:07:22.377Z,28.41
2022-11-20T11:09:54.253Z,28.94
2022-11-20T11:12:26.708Z,28.98
2022-11-20T11:14:54.782Z,29.35
2022-11-20T11:17:32.090Z,29.01
2022-11-20T11:20:04.748Z,29.65
2022-11-20T11:22:33.148Z,28.97
2022-11-20T11:25:00.377Z,29.89
2022-11-20T11:27:27.125Z,29.80
2022-11-20T11:30:03.749Z,29.73
2022-11-20T11:32:30.416Z,31.24
2022-11-20T11:35:04.896Z,32.01
2022-11-20T11:37:36.941Z,33.37
2022-11-20T11:42:58.878Z,31.77
2022-11-20T11:45:25.592Z,31.16
2022-11-20T11:47:54.314Z,31.61
2022-11-20T11:50:28.733Z,31.63
2022-11-20T11:53:04.448Z,30.94
2022-11-20T11:55:37.017Z,33.57
2022-11-20T11:58:12.675Z,33.92
2022-11-20T12:00:42.886Z,33.77
2022-11-20T12:03:26.960Z,33.76
2022-11-20T12:05:59.519Z,34.21
2022-11-20T12:08:47.760Z,34.13
2022-11-20T12:11:21.770Z,36.29
2022-11-20T12:14:04.306Z,36.59
2022-11-20T12:16:36.442Z,35.80
2022-11-20T12:19:03.077Z,35.70
2022-11-20T12:21:41.192Z,34.96
2022-11-20T12:24:10.796Z,34.97
2022-11-20T12:26:52.696Z,34.12
2022-11-20T12:29:30.310Z,34.57
2022-11-20T12:32:16.170Z,34.17
2022-11-20T12:34:58.882Z,34.23
2022-11-20T12:37:38.734Z,35.00
2022-11-20T12:40:19.046Z,33.29
2022-11-20T12:43:12.510Z,35.31
2022-11-20T12:45:45.494Z,35.84
2022-11-20T12:48:15.213Z,35.35
2022-11-20T12:51:00.245Z,35.53
2022-11-20T12:53:47.550Z,34.94
2022-11-20T12:56:25.440Z,34.94
2022-11-20T12:58:52.015Z,36.79
2022-11-20T13:01:44.915Z,35.74
2022-11-20T13:04:24.281Z,36.14
2022-11-20T13:06:52.102Z,35.07
2022-11-20T13:09:22.985Z,36.70
2022-11-20T13:12:11.001Z,36.12
2022-11-20T13:15:01.103Z,36.46
2022-11-20T13:17:43.182Z,37.08
2022-11-20T13:20:15.381Z,35.07
2022-11-20T13:22:49.748Z,35.63
2022-11-20T13:25:36.905Z,35.89
2022-11-20T13:28:23.960Z,37.80
2022-11-20T13:30:52.693Z,38.30
2022-11-20T13:33:31.791Z,35.61
2022-11-20T13:36:07.177Z,34.82
2022-11-20T13:38:49.327Z,35.37
2022-11-20T13:41:36.459Z,35.78
2022-11-20T13:44:25.153Z,34.52
2022-11-20T13:46:52.301Z,34.80
2022-11-20T13:49:27.937Z,34.29
2022-11-20T13:52:09.787Z,34.73
2022-11-20T13:54:56.888Z,34.34
2022-11-20T13:57:42.438Z,34.48
2022-11-20T14:00:12.595Z,33.84
2022-11-20T14:02:39.687Z,34.15
2022-11-20T14:05:07.061Z,35.16
2022-11-20T14:07:38.071Z,34.69
2022-11-20T14:10:05.137Z,35.43
2022-11-20T14:12:33.473Z,34.85
2022-11-20T14:15:00.726Z,33.18
2022-11-20T14:17:30.502Z,33.67
2022-11-20T14:20:04.482Z,32.99
2022-11-20T14:22:31.113Z,32.85
2022-11-20T14:25:13.236Z,34.23
2022-11-20T14:27:42.140Z,33.05
2022-11-20T14:30:16.035Z,33.89
2022-11-20T14:32:45.134Z,33.85
2022-11-20T14:35:20.255Z,34.10
2022-11-20T14:37:47.205Z,37.77
2022-11-20T14:40:37.020Z,35.33
2022-11-20T14:43:18.284Z,35.42
2022-11-20T14:45:54.031Z,35.01
2022-11-20T14:48:25.350Z,34.32
2022-11-20T14:50:51.905Z,34.84
2022-11-20T14:53:24.472Z,35.65
2022-11-20T14:55:59.609Z,35.81
2022-11-20T14:58:32.796Z,36.87
2022-11-20T15:01:01.991Z,36.22
2022-11-20T15:03:36.588Z,35.31
2022-11-20T15:06:04.013Z,35.02
2022-11-20T15:08:30.914Z,33.79
2022-11-20T15:10:58.707Z,34.25
2022-11-20T15:13:33.910Z,35.22
2022-11-20T15:16:03.053Z,34.97
2022-11-20T15:18:32.403Z,35.00
2022-11-20T15:21:02.388Z,37.08
2022-11-20T15:23:29.456Z,36.43
2022-11-20T15:25:57.029Z,35.30
2022-11-20T15:28:35.745Z,36.23
2022-11-20T15:31:04.137Z,33.77
2022-11-20T15:33:31.699Z,33.36
2022-11-20T15:35:58.636Z,33.11
2022-11-20T15:38:25.356Z,34.64
2022-11-20T15:40:52.622Z,32.99
2022-11-20T15:43:19.622Z,32.71
2022-11-20T15:45:52.250Z,32.38
2022-11-20T15:48:21.032Z,32.95
2022-11-20T15:50:54.861Z,38.37
2022-11-20T15:53:21.567Z,33.90
2022-11-20T15:55:48.123Z,32.67
2022-11-20T15:58:14.701Z,32.22
2022-11-20T16:00:41.306Z,31.68
2022-11-20T16:03:10.116Z,32.67
2022-11-20T16:05:36.667Z,32.64
2022-11-20T16:08:08.538Z,32.00
2022-11-20T16:10:38.298Z,33.14
2022-11-20T16:13:25.086Z,37.89
2022-11-20T16:15:56.232Z,57.09
2022-11-20T16:18:23.114Z,60.68
2022-11-20T16:20:51.551Z,51.94
2022-11-20T16:23:18.899Z,38.34
2022-11-20T16:25:45.567Z,32.76
2022-11-20T16:28:17.458Z,31.67
2022-11-20T16:30:46.040Z,32.40
2022-11-20T16:33:13.906Z,32.23
2022-11-20T16:35:41.084Z,30.88
2022-11-20T16:38:07.632Z,32.50
2022-11-20T16:40:34.169Z,31.73
2022-11-20T16:43:09.738Z,32.77
2022-11-20T16:45:40.849Z,28.71
2022-11-20T16:48:07.419Z,27.56
2022-11-20T16:50:33.934Z,32.41
2022-11-20T16:53:00.455Z,37.55
2022-11-20T16:55:27.022Z,35.36
2022-11-20T16:57:53.572Z,43.79
2022-11-20T17:00:20.168Z,34.01
2022-11-20T17:02:47.125Z,30.33
2022-11-20T17:05:13.682Z,33.75
2022-11-20T17:07:40.287Z,33.69
2022-11-20T17:10:07.017Z,36.50
2022-11-20T17:12:33.550Z,39.85
2022-11-20T17:15:00.323Z,42.07
2022-11-20T17:17:26.874Z,37.72
2022-11-20T17:19:53.387Z,36.04
2022-11-20T17:22:20.262Z,36.83
2022-11-20T17:24:46.856Z,41.51
2022-11-20T17:27:13.407Z,38.51
2022-11-20T17:29:42.204Z,36.02
2022-11-20T17:32:09.005Z,37.52
2022-11-20T17:34:35.555Z,36.39
2022-11-20T17:37:02.381Z,34.02
2022-11-20T17:39:29.057Z,38.69
2022-11-20T17:42:14.303Z,42.27
2022-11-20T17:44:42.626Z,35.16
2022-11-20T17:47:09.514Z,33.59
2022-11-20T17:49:36.074Z,32.17
2022-11-20T17:52:02.686Z,34.71
2022-11-20T17:54:29.324Z,34.18
2022-11-20T17:57:14.599Z,30.38
2022-11-20T17:59:41.152Z,29.45
2022-11-20T18:02:07.877Z,28.60
2022-11-20T18:04:34.419Z,27.95
2022-11-20T18:07:01.115Z,30.44
2022-11-20T18:09:27.988Z,40.64
2022-11-20T18:11:54.545Z,51.77
2022-11-20T18:14:29.264Z,69.85
2022-11-20T18:16:58.028Z,45.24
2022-11-20T18:19:31.443Z,38.84
2022-11-20T18:22:01.330Z,32.03
2022-11-20T18:24:28.014Z,29.83
2022-11-20T18:26:54.642Z,32.02
2022-11-20T18:29:21.686Z,31.13
2022-11-20T18:31:49.237Z,31.62
2022-11-20T18:34:15.882Z,32.47
2022-11-20T18:36:42.905Z,29.56
2022-11-20T18:39:11.691Z,31.90
2022-11-20T18:41:57.276Z,33.79
2022-11-20T18:44:43.494Z,31.72
2022-11-20T18:47:14.810Z,30.59
2022-11-20T18:49:50.865Z,30.12
2022-11-20T18:52:18.257Z,29.63
2022-11-20T18:54:44.760Z,30.00
2022-11-20T18:57:14.531Z,29.75
2022-11-20T18:59:42.811Z,30.20
2022-11-20T19:02:10.379Z,32.38
2022-11-20T19:04:37.153Z,32.43
2022-11-20T19:07:03.795Z,32.59
2022-11-20T19:09:30.494Z,31.42
2022-11-20T19:11:57.067Z,31.64
2022-11-20T19:14:23.747Z,32.77
2022-11-20T19:16:51.478Z,32.21
2022-11-20T19:19:18.312Z,32.35
2022-11-20T19:21:44.897Z,31.94
2022-11-20T19:24:11.616Z,31.16
2022-11-20T19:26:38.641Z,28.87
2022-11-20T19:29:06.438Z,29.95
2022-11-20T19:31:33.562Z,29.20
2022-11-20T19:34:01.630Z,31.22
2022-11-20T19:36:29.888Z,30.58
2022-11-20T19:38:57.088Z,29.65
2022-11-20T19:41:31.676Z,28.43
2022-11-20T19:44:02.684Z,28.57
2022-11-20T19:46:30.069Z,29.54
2022-11-20T19:48:57.193Z,32.59
2022-11-20T19:51:25.640Z,31.87
2022-11-20T19:53:52.720Z,29.83
2022-11-20T19:56:19.393Z,30.25
2022-11-20T19:58:46.370Z,29.18
2022-11-20T20:01:17.828Z,29.19
2022-11-20T20:03:45.590Z,29.52
2022-11-20T20:06:14.417Z,29.32
2022-11-20T20:08:41.480Z,30.47
2022-11-20T20:11:18.560Z,29.12
2022-11-20T20:13:46.064Z,28.82
2022-11-20T20:16:15.012Z,29.08
2022-11-20T20:18:41.864Z,29.16
2022-11-20T20:21:09.831Z,30.49
2022-11-20T20:23:37.049Z,31.01
2022-11-20T20:26:05.320Z,29.35
2022-11-20T20:28:32.165Z,28.97
2022-11-20T20:31:05.588Z,28.73
2022-11-20T20:33:32.204Z,28.78
2022-11-20T20:35:59.100Z,28.91
2022-11-20T20:38:25.704Z,28.02
2022-11-20T20:40:52.562Z,28.86
2022-11-20T20:43:19.170Z,29.16
2022-11-20T20:45:47.246Z,29.03
2022-11-20T20:48:14.994Z,30.05
2022-11-20T20:50:41.628Z,30.91
2022-11-20T20:53:08.188Z,30.05
2022-11-20T20:55:35.819Z,29.52
2022-11-20T20:58:02.378Z,30.51
2022-11-20T21:00:28.923Z,29.69
2022-11-20T21:02:55.521Z,30.21
2022-11-20T21:05:22.102Z,30.49
2022-11-20T21:08:07.486Z,30.97
2022-11-20T21:10:34.712Z,31.70
2022-11-20T21:13:01.329Z,30.86
2022-11-20T21:15:27.881Z,31.05
2022-11-20T21:17:54.611Z,31.74
2022-11-20T21:20:39.771Z,31.19
2022-11-20T21:23:10.297Z,30.39
2022-11-20T21:25:42.644Z,31.34
2022-11-20T21:28:12.131Z,32.76
2022-11-20T21:30:42.087Z,32.53
2022-11-20T21:33:08.660Z,34.17
2022-11-20T21:35:35.362Z,32.10
2022-11-20T21:38:02.106Z,31.56
2022-11-20T21:40:28.755Z,32.78
2022-11-20T21:42:56.199Z,33.20
2022-11-20T21:45:23.040Z,31.21
2022-11-20T21:47:50.815Z,31.21
2022-11-20T21:50:20.561Z,31.01
2022-11-20T21:52:47.155Z,31.24
2022-11-20T21:55:13.987Z,30.97
2022-11-20T21:57:40.479Z,31.70
2022-11-20T22:00:07.272Z,31.16
2022-11-20T22:02:33.796Z,30.43
2022-11-20T22:05:00.335Z,31.54
2022-11-20T22:07:26.909Z,32.30
2022-11-20T22:09:53.525Z,34.28
2022-11-20T22:12:21.063Z,34.14
2022-11-20T22:14:47.868Z,33.72
2022-11-20T22:17:14.866Z,32.60
2022-11-20T22:19:41.488Z,31.75
2022-11-20T22:22:08.127Z,31.32
2022-11-20T22:24:34.771Z,32.41
2022-11-20T22:27:01.303Z,32.87
2022-11-20T22:29:27.834Z,32.13
2022-11-20T22:31:54.697Z,31.43
2022-11-20T22:34:21.404Z,32.15
2022-11-20T22:36:48.115Z,32.60
2022-11-20T22:39:14.602Z,32.81
2022-11-20T22:41:41.185Z,34.01
2022-11-20T22:44:08.063Z,34.40
2022-11-20T22:46:35.857Z,33.78
2022-11-20T22:49:04.264Z,34.10
2022-11-20T22:51:33.239Z,34.22
2022-11-20T22:54:00.978Z,34.02
2022-11-20T22:56:27.743Z,33.52
2022-11-20T22:58:54.885Z,34.83
2022-11-20T23:01:27.077Z,33.47
2022-11-20T23:03:58.373Z,33.58
2022-11-20T23:06:25.784Z,33.68
2022-11-20T23:08:53.701Z,34.21
2022-11-20T23:11:21.762Z,33.60
2022-11-20T23:13:52.824Z,33.77
2022-11-20T23:16:19.979Z,33.68
2022-11-20T23:18:46.709Z,34.84
2022-11-20T23:21:14.665Z,34.92
2022-11-20T23:23:41.839Z,36.26
2022-11-20T23:26:12.957Z,36.87
2022-11-20T23:28:40.529Z,36.05
2022-11-20T23:31:07.771Z,36.89
2022-11-20T23:33:38.542Z,37.96
2022-11-20T23:36:05.583Z,37.38
2022-11-20T23:38:32.803Z,37.52
2022-11-20T23:40:59.444Z,37.26
2022-11-20T23:43:26.262Z,37.34
2022-11-20T23:45:57.788Z,37.47
2022-11-20T23:48:26.305Z,37.75
2022-11-20T23:50:53.286Z,37.91
2022-11-20T23:53:20.608Z,38.20
2022-11-20T23:55:48.789Z,38.30
2022-11-20T23:58:16.355Z,38.98
